Time;durP1;ratioP1;P1;durP2;ratioP2;P2;SDS_P1;SDS_P2;PMS_P1;PMS_P2;Temp;Humidity;BMP_temperature;BMP_pressure;BME280_temperature;BME280_humidity;BME280_pressure;Samples;Min_cycle;Max_cycle;Signal;HPM_P1;HPM_P2
2022/03/31 00:00:32;;;;;;;26.70;5.40;;;;;;;16.96;64.01;94870.22;5135819;27;20027;-31
2022/03/31 00:02:58;;;;;;;27.25;5.20;;;;;;;16.97;64.34;94866.22;5117248;27;20544;-31
2022/03/31 00:05:24;;;;;;;23.67;5.38;;;;;;;16.86;65.25;94856.81;5135524;27;20058;-32
2022/03/31 00:08:01;;;;;;;27.58;5.60;;;;;;;16.93;64.65;94860.28;5135686;27;20023;-32
2022/03/31 00:10:31;;;;;;;25.00;5.35;;;;;;;16.90;64.46;94851.09;5135544;27;20020;-31
2022/03/31 00:12:58;;;;;;;25.02;5.55;;;;;;;16.74;64.83;94841.69;5135542;27;20023;-31
2022/03/31 00:15:29;;;;;;;30.08;4.95;;;;;;;16.76;65.45;94830.25;5135272;27;20051;-31
2022/03/31 00:17:57;;;;;;;31.40;6.47;;;;;;;16.80;64.01;94828.00;5135637;27;20047;-32
2022/03/31 00:20:22;;;;;;;27.73;5.20;;;;;;;16.73;64.68;94817.56;5135300;27;20475;-31
2022/03/31 00:22:48;;;;;;;29.73;7.53;;;;;;;16.88;64.25;94807.78;5117139;27;20031;-31
2022/03/31 00:25:14;;;;;;;32.05;5.68;;;;;;;16.80;64.49;94803.34;5135311;27;20034;-31
2022/03/31 00:27:41;;;;;;;25.08;5.70;;;;;;;16.86;64.45;94799.31;5135133;27;20027;-31
2022/03/31 00:30:09;;;;;;;24.67;5.22;;;;;;;16.93;64.22;94800.06;5116749;27;20455;-31
2022/03/31 00:32:35;;;;;;;38.55;6.25;;;;;;;16.83;64.50;94792.13;5135238;27;20490;-31
2022/03/31 00:35:02;;;;;;;27.20;5.60;;;;;;;16.92;64.26;94798.56;5116622;27;20023;-31
2022/03/31 00:37:28;;;;;;;24.10;4.78;;;;;;;16.82;64.66;94782.41;5135106;27;20023;-31
2022/03/31 00:39:55;;;;;;;23.58;5.03;;;;;;;16.84;64.46;94781.91;5134902;27;20030;-32
2022/03/31 00:42:22;;;;;;;33.10;5.82;;;;;;;16.90;63.93;94774.41;5116111;27;20019;-31
2022/03/31 00:44:48;;;;;;;26.00;4.43;;;;;;;16.78;64.38;94770.25;5134960;27;20023;-31
2022/03/31 00:47:15;;;;;;;23.88;5.70;;;;;;;16.85;64.04;94769.72;5134936;27;20467;-32
2022/03/31 00:49:41;;;;;;;28.60;5.65;;;;;;;16.92;63.77;94771.19;5134805;27;20034;-31
2022/03/31 00:52:07;;;;;;;23.20;5.47;;;;;;;16.91;63.54;94775.16;5116236;27;20498;-31
2022/03/31 00:54:34;;;;;;;27.48;5.32;;;;;;;16.86;63.29;94777.41;5134932;27;20153;-31
2022/03/31 00:57:02;;;;;;;25.88;6.03;;;;;;;16.85;63.73;94770.44;5134651;27;20084;-32
2022/03/31 00:59:29;;;;;;;25.77;5.07;;;;;;;16.96;63.51;94775.13;5134772;27;20026;-31
2022/03/31 01:01:56;;;;;;;18.33;5.75;;;;;;;16.98;63.22;94767.13;5134375;27;20043;-31
2022/03/31 01:04:22;;;;;;;28.20;5.80;;;;;;;16.94;63.32;94768.69;5134516;27;20027;-31
2022/03/31 01:06:47;;;;;;;27.58;5.97;;;;;;;16.90;63.71;94768.19;5134681;27;20026;-31
2022/03/31 01:09:13;;;;;;;26.23;5.15;;;;;;;16.91;63.90;94764.22;5135002;27;20015;-31
2022/03/31 01:11:39;;;;;;;30.52;6.05;;;;;;;16.95;63.45;94765.41;5134570;27;20091;-31
2022/03/31 01:14:09;;;;;;;28.80;5.53;;;;;;;16.90;63.89;94773.69;5134815;27;20027;-32
2022/03/31 01:16:36;;;;;;;29.25;5.63;;;;;;;16.97;63.32;94767.66;5134302;27;20019;-31
2022/03/31 01:19:06;;;;;;;18.60;5.32;;;;;;;16.90;63.73;94768.19;5116219;28;20026;-31
2022/03/31 01:21:42;;;;;;;23.80;5.45;;;;;;;16.84;64.08;94768.97;5134453;27;20467;-31
2022/03/31 01:24:10;;;;;;;28.20;5.65;;;;;;;16.86;63.65;94763.00;5134233;28;20057;-31
2022/03/31 01:26:40;;;;;;;19.42;5.03;;;;;;;16.87;63.67;94764.47;5134339;28;20475;-31
2022/03/31 01:29:06;;;;;;;22.17;6.30;;;;;;;16.93;63.53;94759.72;5133984;27;20023;-31
2022/03/31 01:31:32;;;;;;;18.02;5.38;;;;;;;16.90;63.54;94746.28;5134565;28;20068;-31
2022/03/31 01:33:58;;;;;;;23.13;5.88;;;;;;;16.96;63.42;94741.50;5134530;28;20591;-31
2022/03/31 01:36:27;;;;;;;24.67;5.13;;;;;;;16.78;63.33;94729.94;5134403;28;20027;-31
2022/03/31 01:38:55;;;;;;;21.55;5.10;;;;;;;16.76;63.54;94732.44;5115819;28;20019;-32
2022/03/31 01:41:22;;;;;;;26.00;5.95;;;;;;;16.70;64.18;94726.25;5134246;28;20403;-31
2022/03/31 01:43:48;;;;;;;23.95;5.78;;;;;;;16.81;63.48;94728.19;5134229;28;20072;-31
2022/03/31 01:46:14;;;;;;;23.40;4.72;;;;;;;16.71;64.24;94732.47;5134315;28;20051;-31
2022/03/31 01:48:40;;;;;;;25.27;6.63;;;;;;;16.65;64.63;94723.56;5134219;28;20019;-31
2022/03/31 01:51:07;;;;;;;24.55;4.65;;;;;;;16.73;64.33;94713.53;5133952;28;20034;-31
2022/03/31 01:53:35;;;;;;;30.63;6.63;;;;;;;16.76;64.18;94713.28;5133964;28;20068;-31
2022/03/31 01:56:02;;;;;;;31.15;5.07;;;;;;;16.72;63.63;94704.59;5134146;28;20028;-31
2022/03/31 01:58:28;;;;;;;25.63;4.72;;;;;;;16.74;64.03;94698.59;5115697;28;20027;-31
2022/03/31 02:00:53;;;;;;;27.38;6.38;;;;;;;16.82;63.17;94694.81;5134354;28;20025;-31
2022/03/31 02:03:19;;;;;;;19.70;5.88;;;;;;;16.74;64.34;94690.41;5133753;28;20096;-31
2022/03/31 02:05:45;;;;;;;22.38;5.50;;;;;;;16.71;64.40;94694.88;5133869;28;20058;-31
2022/03/31 02:08:10;;;;;;;23.13;4.97;;;;;;;16.65;64.34;94677.78;5134058;28;20027;-32
2022/03/31 02:10:36;;;;;;;22.80;5.88;;;;;;;16.64;64.60;94683.75;5134115;28;20463;-31
2022/03/31 02:13:02;;;;;;;26.77;5.38;;;;;;;16.61;64.85;94685.47;5134336;28;20027;-31
2022/03/31 02:15:29;;;;;;;26.50;6.28;;;;;;;16.66;64.60;94687.47;5115418;28;20027;-31
2022/03/31 02:17:55;;;;;;;24.67;6.13;;;;;;;16.65;64.48;94685.97;5133929;28;20065;-31
2022/03/31 02:20:21;;;;;;;25.25;5.28;;;;;;;16.48;65.42;94697.00;5133757;28;20034;-31
2022/03/31 02:22:47;;;;;;;26.90;5.30;;;;;;;16.49;65.14;94681.31;5115572;28;20356;-31
2022/03/31 02:25:12;;;;;;;23.58;5.50;;;;;;;16.56;64.83;94683.53;5133891;28;20133;-32
2022/03/31 02:27:39;;;;;;;22.60;5.47;;;;;;;16.53;64.94;94690.75;5115506;28;20023;-31
2022/03/31 02:30:06;;;;;;;27.48;6.05;;;;;;;16.57;65.15;94684.28;5133782;28;20019;-31
2022/03/31 02:32:33;;;;;;;25.95;6.13;;;;;;;16.57;64.71;94682.25;5133696;28;20027;-32
2022/03/31 02:34:58;;;;;;;32.55;6.82;;;;;;;16.53;64.95;94677.06;5133571;28;20104;-31
2022/03/31 02:37:25;;;;;;;24.40;6.35;;;;;;;16.24;66.00;94683.19;5133858;28;20045;-31
2022/03/31 02:39:51;;;;;;;21.83;5.85;;;;;;;16.41;65.28;94681.13;5134258;27;20030;-31
2022/03/31 02:42:17;;;;;;;22.73;5.88;;;;;;;16.53;64.99;94677.06;5137398;27;20023;-31
2022/03/31 02:44:44;;;;;;;28.88;7.72;;;;;;;16.54;65.09;94680.56;5118892;27;20383;-31
2022/03/31 02:47:10;;;;;;;20.52;5.55;;;;;;;16.54;65.07;94680.56;5137126;27;20105;-32
2022/03/31 02:49:36;;;;;;;24.65;6.20;;;;;;;16.22;66.41;94668.53;5137332;27;20066;-31
2022/03/31 02:52:02;;;;;;;25.42;5.30;;;;;;;16.26;66.24;94655.34;5137194;27;20049;-31
2022/03/31 02:57:12;;;;;;;18.52;4.85;;;;;;;16.47;65.38;94643.53;5137643;27;20390;-31
2022/03/31 02:59:38;;;;;;;23.27;4.82;;;;;;;16.45;65.50;94637.06;5137224;27;20023;-31
2022/03/31 03:02:04;;;;;;;20.75;4.28;;;;;;;16.43;65.54;94632.13;5136720;27;20430;-31
2022/03/31 03:04:30;;;;;;;21.55;4.78;;;;;;;16.37;65.71;94614.25;5136944;27;20031;-31
2022/03/31 03:06:56;;;;;;;19.73;3.97;;;;;;;16.28;66.07;94623.50;5136903;27;20026;-31
2022/03/31 03:09:22;;;;;;;15.82;4.07;;;;;;;16.51;65.20;94613.16;5136957;27;20019;-31
2022/03/31 03:11:48;;;;;;;17.50;4.82;;;;;;;16.42;65.26;94606.00;5137585;27;20027;-31
2022/03/31 03:14:14;;;;;;;18.52;4.90;;;;;;;16.50;65.45;94603.47;5137021;27;20027;-31
2022/03/31 03:16:41;;;;;;;13.13;3.58;;;;;;;16.47;65.44;94594.28;5136286;27;20529;-31
2022/03/31 03:19:07;;;;;;;12.05;3.60;;;;;;;16.52;64.89;94593.50;5136777;27;20072;-31
2022/03/31 03:21:34;;;;;;;18.95;5.13;;;;;;;16.57;64.63;94594.69;5136557;27;20015;-31
2022/03/31 03:24:04;;;;;;;10.55;3.15;;;;;;;16.59;64.79;94594.19;5137062;27;20382;-31
2022/03/31 03:26:30;;;;;;;12.10;3.80;;;;;;;16.62;64.13;94590.44;5136586;27;20030;-31
2022/03/31 03:28:56;;;;;;;13.23;3.00;;;;;;;16.59;64.71;94585.97;5136359;27;20027;-31
2022/03/31 03:31:21;;;;;;;12.20;3.90;;;;;;;16.60;64.63;94588.19;5136502;27;20019;-31
2022/03/31 03:33:47;;;;;;;11.30;3.88;;;;;;;16.63;64.61;94581.75;5136264;27;20482;-31
2022/03/31 03:36:19;;;;;;;11.73;3.10;;;;;;;16.62;64.82;94577.53;5136409;27;20472;-31
2022/03/31 03:38:46;;;;;;;12.82;3.10;;;;;;;16.66;64.39;94567.03;5136550;27;20391;-31
2022/03/31 03:41:13;;;;;;;7.45;2.95;;;;;;;16.67;64.03;94565.06;5136178;27;20057;-31
2022/03/31 03:43:43;;;;;;;11.18;3.25;;;;;;;16.69;64.01;94560.53;5136274;27;20035;-31
2022/03/31 03:46:09;;;;;;;17.27;3.65;;;;;;;16.72;64.11;94556.78;5136274;27;20023;-31
2022/03/31 03:48:35;;;;;;;9.43;2.90;;;;;;;16.68;63.79;94556.34;5136059;27;20026;-32
2022/03/31 03:51:00;;;;;;;11.93;3.65;;;;;;;16.60;64.39;94549.88;5135377;27;20023;-31
2022/03/31 03:53:27;;;;;;;10.50;3.13;;;;;;;16.67;63.71;94548.63;5135763;27;20035;-31
2022/03/31 03:55:53;;;;;;;8.40;3.22;;;;;;;16.71;63.92;94557.28;5135878;27;20368;-31
2022/03/31 03:58:18;;;;;;;10.38;3.13;;;;;;;16.65;64.06;94560.09;5135699;27;20038;-31
2022/03/31 04:00:44;;;;;;;12.20;2.65;;;;;;;16.66;64.06;94561.56;5135743;27;20110;-31
2022/03/31 04:03:10;;;;;;;13.15;3.35;;;;;;;16.69;63.68;94566.00;5135534;27;20403;-31
2022/03/31 04:05:37;;;;;;;12.38;3.28;;;;;;;16.66;64.26;94572.50;5135838;27;20023;-31
2022/03/31 04:08:03;;;;;;;13.07;4.20;;;;;;;16.60;64.37;94563.56;5135735;27;20431;-31
2022/03/31 04:10:28;;;;;;;9.60;3.03;;;;;;;16.63;64.15;94570.06;5117067;27;20062;-31
2022/03/31 04:12:54;;;;;;;14.68;3.80;;;;;;;16.56;64.65;94560.38;5135274;27;20379;-32
2022/03/31 04:15:20;;;;;;;13.75;3.67;;;;;;;16.55;65.12;94561.63;5135460;27;20102;-31
2022/03/31 04:17:45;;;;;;;13.85;3.92;;;;;;;16.51;64.84;94558.44;5135640;27;20031;-31
2022/03/31 04:20:13;;;;;;;15.82;3.58;;;;;;;16.35;65.88;94556.56;5135425;27;20027;-31
2022/03/31 04:22:39;;;;;;;13.80;3.63;;;;;;;16.45;65.49;94560.44;5135361;27;20060;-31
2022/03/31 04:25:07;;;;;;;19.27;4.03;;;;;;;16.52;64.92;94559.91;5135221;27;20023;-31
2022/03/31 04:27:34;;;;;;;15.77;4.15;;;;;;;16.56;64.82;94554.91;5135058;27;20106;-31
2022/03/31 04:30:01;;;;;;;10.55;3.50;;;;;;;16.61;64.16;94558.84;5135152;27;20050;-31
2022/03/31 04:32:26;;;;;;;14.85;4.00;;;;;;;16.62;64.07;94552.88;5135078;27;20019;-31
2022/03/31 04:34:52;;;;;;;16.40;4.15;;;;;;;16.60;64.54;94552.63;5135486;27;20022;-31
2022/03/31 04:37:18;;;;;;;20.25;4.43;;;;;;;16.59;64.54;94564.81;5135096;27;20172;-31
2022/03/31 04:39:44;;;;;;;14.90;4.70;;;;;;;16.60;64.02;94552.63;5134952;27;20030;-32
2022/03/31 04:42:09;;;;;;;15.63;4.10;;;;;;;16.50;64.63;94551.47;5134916;27;20424;-31
2022/03/31 04:44:38;;;;;;;17.67;4.47;;;;;;;16.50;64.82;94546.00;5135079;27;20026;-31
2022/03/31 04:47:04;;;;;;;20.63;5.15;;;;;;;16.47;65.22;94541.53;5134692;27;20019;-31
2022/03/31 04:49:30;;;;;;;12.85;3.42;;;;;;;16.51;64.84;94550.22;5134823;27;20491;-31
2022/03/31 04:51:56;;;;;;;17.50;4.43;;;;;;;16.42;65.59;94556.75;5134962;27;20050;-32
2022/03/31 04:54:22;;;;;;;20.08;4.70;;;;;;;16.39;65.25;94544.09;5134937;27;20035;-31
2022/03/31 04:56:47;;;;;;;20.40;5.32;;;;;;;16.49;65.47;94544.50;5134622;27;20057;-31
2022/03/31 04:59:13;;;;;;;21.48;4.82;;;;;;;16.43;65.46;94544.56;5128314;27;20015;-32
2022/03/31 05:01:39;;;;;;;15.82;4.93;;;;;;;16.40;65.85;94542.09;5121599;27;20038;-31
2022/03/31 05:04:05;;;;;;;22.23;5.05;;;;;;;16.27;66.12;94545.44;5111499;28;20098;-31
2022/03/31 05:06:30;;;;;;;27.33;4.88;;;;;;;15.95;67.33;94547.16;5129535;27;20027;-31
2022/03/31 05:08:56;;;;;;;22.23;6.25;;;;;;;16.17;66.47;94547.75;5132805;27;20027;-31
2022/03/31 05:11:21;;;;;;;20.35;5.50;;;;;;;15.95;67.63;94566.28;5132509;27;20023;-31
2022/03/31 05:13:47;;;;;;;20.13;5.13;;;;;;;16.03;67.03;94548.09;5132561;27;20034;-31
2022/03/31 05:16:13;;;;;;;22.65;5.22;;;;;;;15.79;68.20;94549.47;5132395;27;20034;-32
2022/03/31 05:18:38;;;;;;;23.02;6.10;;;;;;;15.54;68.81;94558.03;5115460;28;20035;-31
2022/03/31 05:21:04;;;;;;;16.92;3.67;;;;;;;15.85;68.03;94554.91;5112015;28;20027;-31
2022/03/31 05:23:30;;;;;;;21.13;4.50;;;;;;;16.02;67.18;94563.75;5111734;28;20102;-32
2022/03/31 05:25:56;;;;;;;20.98;4.20;;;;;;;15.77;68.50;94559.44;5112046;28;20482;-31
2022/03/31 05:28:21;;;;;;;16.50;3.60;;;;;;;15.44;69.19;94561.06;5111909;28;20035;-31
2022/03/31 05:30:47;;;;;;;19.05;4.75;;;;;;;15.31;70.50;94565.56;5111739;28;20464;-31
2022/03/31 05:33:13;;;;;;;17.95;4.25;;;;;;;15.85;68.30;94549.44;5111745;28;20110;-32
2022/03/31 05:35:38;;;;;;;18.20;3.85;;;;;;;15.96;67.71;94562.28;5093460;28;20062;-31
2022/03/31 05:38:04;;;;;;;14.10;3.47;;;;;;;16.08;67.64;94567.19;5111914;28;20030;-31
2022/03/31 05:40:30;;;;;;;15.90;4.53;;;;;;;16.17;67.20;94563.41;5113239;28;20023;-32
2022/03/31 05:42:56;;;;;;;15.38;4.28;;;;;;;16.19;67.35;94557.44;5134462;27;20136;-31
2022/03/31 05:45:22;;;;;;;18.20;4.45;;;;;;;16.14;67.12;94565.16;5134146;27;20032;-31
2022/03/31 05:47:47;;;;;;;15.70;4.03;;;;;;;16.28;66.47;94562.59;5134342;27;20094;-31
2022/03/31 05:50:14;;;;;;;13.20;3.85;;;;;;;15.96;68.01;94557.56;5134180;27;20514;-31
2022/03/31 05:52:42;;;;;;;14.38;4.15;;;;;;;16.04;67.22;94555.06;5134320;27;20027;-32
2022/03/31 05:55:25;;;;;;;12.57;3.70;;;;;;;16.11;67.77;94554.50;5134154;27;20080;-31
2022/03/31 05:57:51;;;;;;;18.75;4.78;;;;;;;15.70;68.73;94562.72;5133892;27;20030;-31
2022/03/31 06:00:19;;;;;;;14.77;4.03;;;;;;;16.08;67.96;94555.50;5133893;27;20031;-31
2022/03/31 06:02:46;;;;;;;16.25;5.03;;;;;;;16.21;67.05;94552.19;5133825;27;20051;-31
2022/03/31 06:05:13;;;;;;;14.20;4.63;;;;;;;16.27;66.33;94539.22;5134313;27;20030;-31
2022/03/31 06:07:39;;;;;;;17.00;4.28;;;;;;;16.30;66.50;94549.91;5132318;27;20027;-31
2022/03/31 06:10:06;;;;;;;20.00;5.60;;;;;;;16.32;66.44;94544.63;5123880;28;20498;-31
2022/03/31 06:12:32;;;;;;;16.85;5.65;;;;;;;16.32;66.41;94541.91;5119566;28;20452;-31
2022/03/31 06:14:58;;;;;;;15.65;5.20;;;;;;;16.28;66.67;94546.19;5115772;28;20387;-32
2022/03/31 06:17:24;;;;;;;23.45;5.18;;;;;;;16.17;67.08;94550.50;5117268;28;20053;-31
2022/03/31 06:19:50;;;;;;;12.88;5.15;;;;;;;16.06;67.74;94547.84;5117233;28;20483;-31
2022/03/31 06:22:16;;;;;;;15.95;4.82;;;;;;;16.04;67.99;94542.13;5117231;28;20088;-31
2022/03/31 06:24:41;;;;;;;26.00;5.72;;;;;;;16.12;67.43;94540.31;5117540;28;20026;-31
2022/03/31 06:27:08;;;;;;;21.17;5.22;;;;;;;16.16;67.19;94529.13;5098642;28;20080;-32
2022/03/31 06:29:35;;;;;;;28.35;6.55;;;;;;;16.19;67.19;94544.50;5117171;28;20031;-31
2022/03/31 06:32:02;;;;;;;19.05;5.88;;;;;;;16.06;67.47;94536.91;5098620;28;20023;-31
2022/03/31 06:34:28;;;;;;;22.10;5.05;;;;;;;16.00;68.02;94533.44;5116842;28;20034;-32
2022/03/31 06:36:55;;;;;;;17.45;5.93;;;;;;;15.90;68.16;94535.00;5116935;28;20023;-31
2022/03/31 06:39:21;;;;;;;15.05;4.55;;;;;;;16.06;67.74;94531.44;5121618;27;20045;-31
2022/03/31 06:41:46;;;;;;;17.27;5.53;;;;;;;15.65;68.97;94547.06;5125480;27;20023;-31
2022/03/31 06:44:16;;;;;;;24.13;5.35;;;;;;;15.50;69.18;94541.16;5134570;27;20022;-31
2022/03/31 06:46:45;;;;;;;22.30;5.88;;;;;;;15.56;69.55;94544.63;5117313;27;20067;-31
2022/03/31 06:49:11;;;;;;;19.92;5.13;;;;;;;15.42;69.88;94535.47;5114837;28;20043;-31
2022/03/31 06:51:37;;;;;;;18.40;4.63;;;;;;;15.68;69.08;94549.53;5103778;27;20055;-31
2022/03/31 06:54:03;;;;;;;22.35;4.82;;;;;;;15.19;70.03;94540.28;5134893;27;20028;-31
2022/03/31 06:56:30;;;;;;;15.90;4.18;;;;;;;15.54;69.36;94542.38;5134584;27;20034;-31
2022/03/31 06:58:57;;;;;;;12.20;4.10;;;;;;;15.55;69.08;94535.69;5133985;27;20037;-31
2022/03/31 07:01:23;;;;;;;18.02;4.57;;;;;;;15.33;69.41;94560.34;5136551;27;20056;-31
2022/03/31 07:03:50;;;;;;;13.88;4.57;;;;;;;15.26;69.78;94534.28;5136995;27;20023;-31
2022/03/31 07:06:16;;;;;;;21.75;5.47;;;;;;;15.40;69.58;94537.97;5118389;27;20459;-31
2022/03/31 07:08:41;;;;;;;19.20;4.82;;;;;;;15.40;69.56;94541.44;5117578;27;20020;-31
2022/03/31 07:11:08;;;;;;;12.20;4.53;;;;;;;15.77;68.52;94540.28;5130944;27;20057;-31
2022/03/31 07:13:34;;;;;;;16.65;5.28;;;;;;;15.88;68.03;94542.97;5136461;27;20019;-31
2022/03/31 07:16:00;;;;;;;17.55;4.68;;;;;;;15.90;68.10;94529.53;5136439;27;20023;-31
2022/03/31 07:18:26;;;;;;;11.70;4.40;;;;;;;15.97;67.79;94534.44;5136593;27;20881;-31
2022/03/31 07:20:51;;;;;;;18.48;4.03;;;;;;;15.95;67.62;94542.41;5136598;27;20015;-31
2022/03/31 07:23:19;;;;;;;19.98;4.38;;;;;;;15.70;67.99;94555.22;5136226;27;20026;-32
2022/03/31 07:25:44;;;;;;;18.30;5.47;;;;;;;15.97;67.37;94564.53;5135372;27;20019;-32
2022/03/31 07:28:10;;;;;;;15.00;3.85;;;;;;;15.62;68.60;94559.75;5136318;27;20026;-31
2022/03/31 07:30:36;;;;;;;15.13;4.50;;;;;;;15.12;69.96;94570.81;5136525;27;20371;-31
2022/03/31 07:33:03;;;;;;;16.42;4.68;;;;;;;15.65;68.88;94564.22;5136601;27;20027;-31
2022/03/31 07:35:31;;;;;;;16.88;4.68;;;;;;;15.74;67.92;94566.63;5117582;27;20371;-31
2022/03/31 07:37:58;;;;;;;15.82;5.07;;;;;;;15.29;69.53;94568.06;5136622;27;20526;-31
2022/03/31 07:40:25;;;;;;;20.30;4.85;;;;;;;15.52;68.58;94560.50;5136361;27;20026;-31
2022/03/31 07:42:51;;;;;;;16.92;5.10;;;;;;;14.49;72.67;94563.22;5136289;27;20023;-29
2022/03/31 07:45:17;;;;;;;16.08;4.63;;;;;;;15.13;69.69;94575.03;5135555;27;20075;-31
2022/03/31 07:47:43;;;;;;;17.48;5.03;;;;;;;15.33;69.02;94563.81;5136216;27;20082;-31
2022/03/31 07:50:11;;;;;;;18.75;4.85;;;;;;;15.29;69.10;94566.06;5136036;27;20394;-31
2022/03/31 07:52:38;;;;;;;16.98;4.63;;;;;;;15.41;68.06;94583.91;5136226;27;20031;-31
2022/03/31 07:55:06;;;;;;;18.00;4.53;;;;;;;15.62;67.61;94561.72;5135965;27;20031;-31
2022/03/31 07:57:31;;;;;;;23.38;5.05;;;;;;;15.72;67.20;94562.91;5135474;27;20020;-32
2022/03/31 07:59:57;;;;;;;19.27;4.75;;;;;;;15.62;67.60;94564.47;5135295;27;20479;-31
2022/03/31 08:02:25;;;;;;;15.25;4.57;;;;;;;15.59;67.54;94554.53;5135015;27;20513;-31
2022/03/31 08:04:51;;;;;;;18.88;4.30;;;;;;;15.31;68.44;94571.78;5135637;27;20031;-31
2022/03/31 08:07:17;;;;;;;20.83;5.07;;;;;;;15.51;67.86;94559.03;5135851;27;20019;-31
2022/03/31 08:09:43;;;;;;;15.15;5.20;;;;;;;15.79;66.75;94576.06;5135662;27;20372;-31
2022/03/31 08:12:10;;;;;;;22.88;5.35;;;;;;;15.47;67.81;94567.47;5135522;27;20026;-31
2022/03/31 08:14:36;;;;;;;23.75;4.63;;;;;;;15.72;67.02;94557.44;5135657;27;20454;-31
2022/03/31 08:17:02;;;;;;;24.88;5.00;;;;;;;15.93;66.12;94561.34;5117009;27;20489;-31
2022/03/31 08:19:30;;;;;;;20.17;4.10;;;;;;;15.84;66.45;94572.53;5135486;27;20497;-31
2022/03/31 08:21:56;;;;;;;19.05;5.15;;;;;;;15.61;67.32;94571.19;5135695;27;20387;-31
2022/03/31 08:24:23;;;;;;;15.25;3.83;;;;;;;15.68;66.90;94581.59;5135470;27;20015;-31
2022/03/31 08:26:50;;;;;;;18.48;4.82;;;;;;;15.02;69.48;94577.81;5135455;27;20478;-31
2022/03/31 08:29:16;;;;;;;22.67;5.05;;;;;;;15.18;68.29;94587.94;5135308;27;20486;-31
2022/03/31 08:31:42;;;;;;;19.98;4.63;;;;;;;15.08;69.37;94605.84;5116863;27;20030;-31
2022/03/31 08:34:08;;;;;;;23.00;4.70;;;;;;;15.28;68.67;94582.94;5135049;27;20015;-31
2022/03/31 08:36:34;;;;;;;16.08;4.07;;;;;;;15.18;69.11;94598.88;5135112;27;20479;-32
2022/03/31 08:39:00;;;;;;;20.92;3.95;;;;;;;15.30;68.74;94581.22;5135358;27;20027;-31
2022/03/31 08:41:28;;;;;;;20.05;4.30;;;;;;;15.20;68.55;94580.00;5135179;27;20098;-31
2022/03/31 08:43:54;;;;;;;25.10;4.90;;;;;;;15.67;67.05;94599.22;5134923;27;20448;-31
2022/03/31 08:46:22;;;;;;;17.42;5.28;;;;;;;15.43;67.96;94586.88;5135020;27;20034;-31
2022/03/31 08:48:48;;;;;;;18.42;4.82;;;;;;;15.49;67.68;94589.56;5134929;27;20016;-31
2022/03/31 08:51:13;;;;;;;19.77;5.65;;;;;;;15.45;68.10;94584.38;5134936;27;20376;-32
2022/03/31 08:53:39;;;;;;;26.38;4.80;;;;;;;15.20;69.13;94582.00;5134711;27;20035;-31
2022/03/31 08:56:05;;;;;;;30.40;5.60;;;;;;;15.27;68.77;94584.19;5134865;27;20026;-31
2022/03/31 08:58:31;;;;;;;21.85;6.00;;;;;;;15.37;68.33;94569.75;5133561;27;20033;-31
2022/03/31 09:00:57;;;;;;;27.63;5.93;;;;;;;15.31;68.55;94566.31;5132898;27;20019;-31
2022/03/31 09:03:37;;;;;;;20.95;5.25;;;;;;;15.64;66.89;94584.59;5134494;27;20039;-31
2022/03/31 09:06:04;;;;;;;24.63;5.75;;;;;;;15.57;67.46;94578.91;5134978;27;20019;-31
2022/03/31 09:08:30;;;;;;;24.42;6.85;;;;;;;15.53;67.61;94572.94;5116418;27;20045;-31
2022/03/31 09:11:00;;;;;;;23.33;7.03;;;;;;;15.50;67.48;94587.59;5134854;27;20039;-31
2022/03/31 09:13:31;;;;;;;25.95;8.40;;;;;;;15.32;68.28;94565.06;5134429;27;20023;-31
2022/03/31 09:16:10;;;;;;;28.38;8.05;;;;;;;15.03;69.13;94573.84;5134638;27;20502;-31
2022/03/31 09:18:38;;;;;;;30.02;7.65;;;;;;;15.17;68.50;94581.00;5134543;27;20106;-31
2022/03/31 09:21:06;;;;;;;27.27;8.25;;;;;;;15.23;68.40;94562.59;5134413;27;20040;-31
2022/03/31 09:23:41;;;;;;;24.60;7.20;;;;;;;15.30;67.72;94578.47;5134355;27;20459;-31
2022/03/31 09:26:11;;;;;;;24.17;7.47;;;;;;;15.56;67.17;94566.50;5134573;27;20515;-31
2022/03/31 09:28:37;;;;;;;30.80;7.28;;;;;;;15.58;66.99;94574.94;5134585;27;20111;-31
2022/03/31 09:31:03;;;;;;;17.05;6.80;;;;;;;15.68;66.53;94562.47;5134646;27;20527;-32
2022/03/31 09:33:32;;;;;;;23.63;7.50;;;;;;;15.54;67.13;94568.94;5134223;27;20031;-31
2022/03/31 09:35:59;;;;;;;23.52;6.95;;;;;;;15.56;66.95;94572.69;5134214;27;20520;-31
2022/03/31 09:38:25;;;;;;;18.08;5.28;;;;;;;15.61;66.99;94562.97;5134165;27;20024;-32
2022/03/31 09:40:52;;;;;;;18.13;5.57;;;;;;;15.46;67.30;94558.53;5134375;27;20023;-31
2022/03/31 09:43:18;;;;;;;19.85;5.80;;;;;;;15.79;65.76;94573.34;5134355;27;20073;-31
2022/03/31 09:45:44;;;;;;;22.95;5.13;;;;;;;15.63;66.76;94565.94;5134093;27;20027;-31
2022/03/31 09:48:24;;;;;;;17.45;5.25;;;;;;;15.88;65.62;94575.03;5134133;27;20102;-31
2022/03/31 09:50:50;;;;;;;16.48;4.78;;;;;;;15.89;65.42;94560.09;5138295;27;20034;-31
2022/03/31 09:53:16;;;;;;;22.70;5.15;;;;;;;15.86;65.65;94572.03;5138471;27;20027;-30
2022/03/31 09:55:43;;;;;;;17.25;4.43;;;;;;;15.43;67.08;94556.09;5138353;27;20436;-31
2022/03/31 09:58:15;;;;;;;19.73;5.70;;;;;;;15.20;68.13;94563.63;5138193;27;20031;-31
2022/03/31 10:00:42;;;;;;;16.58;4.63;;;;;;;15.18;68.14;94574.31;5138420;27;20019;-31
2022/03/31 10:03:08;;;;;;;17.27;4.32;;;;;;;15.42;67.15;94560.81;5137940;27;20043;-31
2022/03/31 10:05:33;;;;;;;19.60;3.97;;;;;;;15.54;66.91;94563.50;5119787;27;20367;-31
2022/03/31 10:08:00;;;;;;;17.95;5.20;;;;;;;15.85;65.63;94562.34;5138350;27;20031;-31
2022/03/31 10:10:27;;;;;;;15.00;5.03;;;;;;;15.71;66.21;94547.78;5119460;27;20026;-31
2022/03/31 10:13:15;;;;;;;15.52;4.68;;;;;;;15.75;65.90;94553.72;5137983;27;20387;-31
2022/03/31 10:15:42;;;;;;;18.40;4.97;;;;;;;15.77;66.07;94553.97;5137903;27;20030;-30
2022/03/31 10:18:11;;;;;;;18.52;4.50;;;;;;;15.86;65.38;94567.31;5138100;27;20456;-31
2022/03/31 10:20:37;;;;;;;18.98;3.88;;;;;;;15.78;65.90;94548.00;5137741;27;20023;-32
2022/03/31 10:25:49;;;;;;;17.80;5.22;;;;;;;15.69;66.68;94555.75;5137783;27;20045;-31
2022/03/31 10:28:17;;;;;;;18.10;4.32;;;;;;;15.79;65.86;94548.75;5137821;27;20072;-31
2022/03/31 10:30:57;;;;;;;17.58;4.72;;;;;;;15.47;67.40;94548.34;5119271;27;20051;-31
2022/03/31 10:33:30;;;;;;;18.20;4.53;;;;;;;15.60;66.82;94545.84;5137414;27;20030;-31
2022/03/31 10:36:02;;;;;;;;;;;;;;;15.77;66.43;94537.56;5119235;27;20023;-31
2022/03/31 10:38:29;;;;;;;18.23;4.28;;;;;;;15.82;66.20;94549.72;5137468;27;19950;-31
2022/03/31 10:41:01;;;;;;;22.67;4.20;;;;;;;15.57;67.24;94535.19;5119062;27;20041;-31
2022/03/31 10:43:30;;;;;;;16.63;4.32;;;;;;;15.66;66.98;94537.63;5137308;27;20019;-31
2022/03/31 10:45:58;;;;;;;13.88;4.38;;;;;;;15.81;66.17;94532.56;5137636;27;20087;-31
2022/03/31 10:48:29;;;;;;;21.20;4.82;;;;;;;15.85;66.42;94533.03;5137244;27;20033;-31
2022/03/31 10:51:04;;;;;;;22.17;4.68;;;;;;;15.79;66.43;94524.88;5137167;27;20015;-32
2022/03/31 10:53:32;;;;;;;14.15;4.28;;;;;;;15.76;66.34;94534.09;5137485;27;20031;-31
2022/03/31 10:55:59;;;;;;;16.40;3.92;;;;;;;15.78;66.49;94520.66;5118935;27;20075;-31
2022/03/31 10:58:28;;;;;;;12.43;3.47;;;;;;;15.44;67.62;94533.00;5137092;27;20063;-31
2022/03/31 11:01:02;;;;;;;9.95;3.35;;;;;;;15.45;67.90;94529.72;5135885;27;20451;-31
2022/03/31 11:03:28;;;;;;;14.65;4.03;;;;;;;15.65;66.68;94522.47;5136761;27;20050;-31
2022/03/31 11:06:01;;;;;;;11.73;3.60;;;;;;;15.72;66.60;94509.00;5137012;27;20023;-31
2022/03/31 11:08:27;;;;;;;12.32;3.33;;;;;;;15.75;66.61;94512.72;5137203;27;20055;-31
2022/03/31 11:10:53;;;;;;;13.25;3.40;;;;;;;15.90;66.01;94523.31;5136852;27;20119;-31
2022/03/31 11:13:33;;;;;;;15.55;3.78;;;;;;;15.70;66.84;94518.97;5136978;27;20035;-31
2022/03/31 11:16:01;;;;;;;17.33;3.80;;;;;;;15.58;66.99;94515.53;5137053;27;20169;-31
2022/03/31 11:18:26;;;;;;;13.43;3.20;;;;;;;15.74;66.57;94500.31;5136672;27;20023;-31
2022/03/31 11:20:56;;;;;;;14.00;4.60;;;;;;;15.58;67.18;94501.16;5136962;27;20019;-31
2022/03/31 11:23:23;;;;;;;11.00;4.00;;;;;;;15.37;67.88;94515.13;5136789;27;20447;-31
2022/03/31 11:25:48;;;;;;;15.13;4.03;;;;;;;15.52;67.15;94501.16;5136639;27;20490;-31
2022/03/31 11:28:15;;;;;;;13.88;3.65;;;;;;;15.46;67.34;94527.75;5136491;27;20023;-31
2022/03/31 11:30:43;;;;;;;12.88;3.88;;;;;;;15.62;66.94;94518.00;5118116;27;20532;-31